Time;durP1;ratioP1;P1;durP2;ratioP2;P2;SDS_P1;SDS_P2;PMS_P1;PMS_P2;Temp;Humidity;BMP_temperature;BMP_pressure;BME280_temperature;BME280_humidity;BME280_pressure;Samples;Min_cycle;Max_cycle;Signal;HPM_P1;HPM_P2
2022/09/08 00:03:47;;;;;;;3.50;2.60;;;23.60;57.10;;;;;;220983;1267;25379;-54
2022/09/08 00:08:55;;;;;;;3.40;2.60;;;23.60;57.60;;;;;;220610;1267;22549;-56
2022/09/08 00:14:05;;;;;;;3.30;2.60;;;23.60;57.20;;;;;;220726;1265;22684;-51
2022/09/08 00:19:09;;;;;;;4.10;3.00;;;23.60;57.30;;;;;;220587;1265;25425;-52
2022/09/08 00:24:19;;;;;;;3.80;2.90;;;23.60;57.60;;;;;;220621;1265;22894;-54
2022/09/08 00:29:25;;;;;;;3.80;2.60;;;23.60;57.40;;;;;;220245;1267;22546;-56
2022/09/08 00:34:29;;;;;;;3.20;2.50;;;23.60;57.30;;;;;;220406;1267;24304;-54
2022/09/08 00:39:37;;;;;;;5.80;2.70;;;23.60;57.30;;;;;;220721;1267;25346;-53
2022/09/08 00:44:50;;;;;;;4.70;2.80;;;23.60;57.00;;;;;;221075;1267;22533;-53
2022/09/08 00:50:03;;;;;;;4.10;2.90;;;23.60;57.40;;;;;;220251;1267;22554;-56
2022/09/08 00:55:13;;;;;;;3.90;2.70;;;23.60;57.40;;;;;;220459;1267;22541;-53
2022/09/08 01:00:27;;;;;;;3.90;2.40;;;23.50;57.40;;;;;;220721;1267;24267;-54
2022/09/08 01:16:18;;;;;;;4.00;2.90;;;23.50;57.40;;;;;;213015;1303;1814895;-59
2022/09/08 01:21:43;;;;;;;3.50;2.70;;;23.70;57.20;;;;;;219431;1277;22679;-60
2022/09/08 01:27:38;;;;;;;4.20;3.00;;;23.60;57.00;;;;;;219472;1277;22764;-59
2022/09/08 01:32:53;;;;;;;4.10;3.00;;;23.60;57.20;;;;;;219416;1277;24074;-59
2022/09/08 01:38:14;;;;;;;5.10;2.60;;;23.50;57.60;;;;;;219353;1277;25512;-62
2022/09/08 01:43:30;;;;;;;3.50;2.30;;;23.50;57.40;;;;;;219545;1277;22656;-62
2022/09/08 01:48:41;;;;;;;3.60;2.60;;;23.50;57.80;;;;;;219279;1277;22736;-63
2022/09/08 01:53:58;;;;;;;3.80;2.70;;;23.50;57.60;;;;;;219397;1277;24016;-60
2022/09/08 01:59:09;;;;;;;4.10;2.90;;;23.50;57.90;;;;;;219447;1277;22529;-60
2022/09/08 02:04:18;;;;;;;4.50;3.10;;;23.50;57.60;;;;;;219395;1277;22725;-60
2022/09/08 02:09:31;;;;;;;4.60;3.20;;;23.40;57.50;;;;;;219480;1277;25346;-61
2022/09/08 02:14:36;;;;;;;3.70;2.70;;;23.40;57.50;;;;;;219391;1278;22573;-58
2022/09/08 02:19:42;;;;;;;4.10;3.10;;;23.40;57.60;;;;;;219482;1277;25292;-58
2022/09/08 02:24:53;;;;;;;5.60;3.30;;;23.40;57.60;;;;;;219427;1278;24311;-57
2022/09/08 02:30:07;;;;;;;3.90;3.10;;;23.40;57.60;;;;;;219176;1277;24797;-60
2022/09/08 02:35:13;;;;;;;4.30;3.00;;;23.40;57.60;;;;;;220297;1268;24345;-59
2022/09/08 02:40:18;;;;;;;5.40;3.00;;;23.30;58.00;;;;;;220465;1271;22624;-60
2022/09/08 02:45:23;;;;;;;3.80;3.00;;;23.40;57.60;;;;;;220590;1271;22598;-61
2022/09/08 02:50:34;;;;;;;4.70;3.00;;;23.40;57.60;;;;;;220303;1271;24263;-61
2022/09/08 02:55:42;;;;;;;4.40;3.00;;;23.40;57.70;;;;;;220249;1271;22553;-60
2022/09/08 03:00:48;;;;;;;3.40;2.70;;;23.30;57.60;;;;;;220397;1268;22613;-60
2022/09/08 03:05:52;;;;;;;3.90;3.20;;;23.40;57.70;;;;;;220513;1268;22865;-58
2022/09/08 03:10:56;;;;;;;3.30;2.90;;;23.30;57.60;;;;;;220638;1271;22544;-59
2022/09/08 03:16:00;;;;;;;4.60;3.10;;;23.30;57.60;;;;;;220416;1271;25445;-60
2022/09/08 03:21:09;;;;;;;4.20;3.10;;;23.30;57.70;;;;;;220653;1271;23616;-62
2022/09/08 03:26:17;;;;;;;4.20;3.40;;;23.30;57.70;;;;;;220592;1271;24293;-60
2022/09/08 03:31:27;;;;;;;4.00;3.00;;;23.30;57.60;;;;;;220046;1268;24733;-60
2022/09/08 03:36:31;;;;;;;4.10;2.90;;;23.30;57.70;;;;;;221022;1268;22581;-62
2022/09/08 03:41:35;;;;;;;3.50;2.80;;;23.30;57.80;;;;;;220332;1268;22534;-62
2022/09/08 03:46:40;;;;;;;5.20;3.40;;;23.30;57.70;;;;;;220538;1268;22542;-60
2022/09/08 03:51:44;;;;;;;5.00;3.30;;;23.30;57.60;;;;;;220614;1268;22603;-59
2022/09/08 03:56:49;;;;;;;4.90;3.20;;;23.30;57.60;;;;;;220516;1268;22558;-60
2022/09/08 04:01:54;;;;;;;5.20;3.60;;;23.20;57.50;;;;;;220751;1268;25308;-58
2022/09/08 04:06:58;;;;;;;4.60;3.20;;;23.20;57.80;;;;;;220342;1268;25334;-59
2022/09/08 04:12:06;;;;;;;4.20;3.30;;;23.20;57.90;;;;;;220424;1268;24323;-62
2022/09/08 04:17:12;;;;;;;4.90;3.10;;;23.20;57.70;;;;;;220608;1268;25377;-60
2022/09/08 04:22:21;;;;;;;4.70;3.30;;;23.20;58.00;;;;;;220766;1268;22732;-61
2022/09/08 04:27:25;;;;;;;3.80;3.20;;;23.20;57.50;;;;;;220664;1268;25245;-60
2022/09/08 04:32:29;;;;;;;3.90;3.10;;;23.20;57.60;;;;;;220815;1268;25297;-60
2022/09/08 04:37:35;;;;;;;4.70;3.60;;;23.20;58.20;;;;;;221047;1268;22774;-58
2022/09/08 04:42:39;;;;;;;4.30;3.50;;;23.20;58.10;;;;;;220613;1268;25313;-59
2022/09/08 04:47:43;;;;;;;4.00;3.10;;;23.20;57.50;;;;;;221005;1268;24214;-63
2022/09/08 04:52:48;;;;;;;5.00;3.40;;;23.20;57.60;;;;;;220757;1267;25000;-59
2022/09/08 04:57:51;;;;;;;4.60;3.10;;;23.20;57.70;;;;;;220933;1268;22523;-59
2022/09/08 05:02:56;;;;;;;6.10;3.60;;;23.20;57.70;;;;;;220359;1268;24208;-61
2022/09/08 05:08:00;;;;;;;4.80;3.60;;;23.20;57.50;;;;;;220956;1268;22629;-60
2022/09/08 05:13:06;;;;;;;5.20;3.90;;;23.10;57.60;;;;;;220692;1268;24260;-60
2022/09/08 05:18:25;;;;;;;5.20;3.10;;;23.20;58.00;;;;;;220353;1268;24243;-60
2022/09/08 05:23:42;;;;;;;5.00;3.70;;;23.20;57.50;;;;;;220382;1269;24293;-61
2022/09/08 05:28:49;;;;;;;4.60;3.30;;;23.20;58.10;;;;;;220695;1268;25295;-61
2022/09/08 05:33:55;;;;;;;5.60;3.30;;;23.20;57.50;;;;;;220876;1268;22853;-60
2022/09/08 05:39:00;;;;;;;4.50;3.20;;;23.20;57.50;;;;;;221019;1268;25229;-60
2022/09/08 05:44:03;;;;;;;4.60;3.40;;;23.20;57.60;;;;;;220688;1268;22541;-60
2022/09/08 05:49:07;;;;;;;6.00;4.00;;;23.20;57.60;;;;;;220618;1268;22548;-59
2022/09/08 05:54:10;;;;;;;4.70;3.80;;;23.20;57.50;;;;;;220956;1268;22549;-60
2022/09/08 05:59:14;;;;;;;4.60;3.30;;;23.20;57.60;;;;;;220537;1268;22698;-60
2022/09/08 06:04:19;;;;;;;4.30;3.10;;;23.20;57.50;;;;;;220859;1268;22641;-59
2022/09/08 06:09:22;;;;;;;5.60;3.70;;;23.20;57.60;;;;;;220979;1268;24210;-62
2022/09/08 06:14:26;;;;;;;5.10;3.50;;;23.20;57.60;;;;;;220564;1268;22541;-59
2022/09/08 06:19:29;;;;;;;4.40;3.30;;;23.20;57.50;;;;;;220598;1268;25530;-60
2022/09/08 06:24:33;;;;;;;5.80;3.90;;;23.20;57.50;;;;;;220854;1268;24308;-60
2022/09/08 06:29:54;;;;;;;4.70;3.70;;;23.20;57.50;;;;;;220660;1268;24296;-60
2022/09/08 06:35:19;;;;;;;5.00;3.50;;;23.20;57.50;;;;;;220672;1268;25339;-61
2022/09/08 06:40:29;;;;;;;4.70;3.60;;;23.20;57.70;;;;;;220802;1268;22560;-59
2022/09/08 06:45:42;;;;;;;5.60;3.50;;;23.20;57.40;;;;;;220543;1268;24737;-61
2022/09/08 06:51:07;;;;;;;5.50;4.10;;;23.30;57.40;;;;;;220869;1268;23955;-61
2022/09/08 06:56:11;;;;;;;4.60;3.70;;;23.30;57.40;;;;;;221004;1268;22522;-61
2022/09/08 07:02:07;;;;;;;5.20;3.90;;;23.30;57.40;;;;;;220571;1268;25384;-61
2022/09/08 07:07:27;;;;;;;4.80;3.60;;;23.30;57.60;;;;;;220634;1268;24309;-61
2022/09/08 07:12:52;;;;;;;4.70;3.60;;;23.30;57.30;;;;;;220716;1268;23844;-59
2022/09/08 07:18:07;;;;;;;5.80;3.90;;;23.30;57.30;;;;;;220562;1268;22553;-63
2022/09/08 07:23:27;;;;;;;5.40;3.80;;;23.30;57.30;;;;;;221082;1268;22591;-60
2022/09/08 07:28:40;;;;;;;5.10;3.80;;;23.30;57.30;;;;;;220840;1268;25225;-59
2022/09/08 07:33:48;;;;;;;5.40;3.60;;;23.40;57.40;;;;;;220661;1268;22643;-61
2022/09/08 07:38:57;;;;;;;4.80;3.70;;;23.30;57.20;;;;;;220756;1268;24392;-62
2022/09/08 07:44:09;;;;;;;5.10;3.40;;;23.40;57.20;;;;;;220877;1268;25434;-60
2022/09/08 07:49:42;;;;;;;5.00;3.60;;;23.40;57.60;;;;;;220624;1268;23195;-61
2022/09/08 07:55:11;;;;;;;4.40;3.40;;;23.50;57.20;;;;;;220711;1268;24286;-61
2022/09/08 08:00:49;;;;;;;5.40;3.70;;;23.50;57.20;;;;;;220755;1268;22543;-60
2022/09/08 08:06:07;;;;;;;4.70;3.60;;;23.50;57.20;;;;;;220673;1268;25300;-59
2022/09/08 08:11:23;;;;;;;4.70;3.50;;;23.50;57.50;;;;;;220537;1268;22527;-60
2022/09/08 08:16:39;;;;;;;4.30;3.40;;;23.50;57.20;;;;;;220600;1268;24404;-61
2022/09/08 08:21:52;;;;;;;4.90;3.90;;;23.60;57.50;;;;;;220771;1268;24262;-60
2022/09/08 08:27:13;;;;;;;4.90;3.80;;;23.60;57.10;;;;;;220791;1268;22562;-60
2022/09/08 08:32:20;;;;;;;5.20;3.90;;;23.60;57.10;;;;;;220305;1268;25422;-60
2022/09/08 08:37:45;;;;;;;6.00;3.70;;;23.70;57.40;;;;;;220999;1268;22554;-59
2022/09/08 08:43:12;;;;;;;5.00;3.70;;;23.70;57.10;;;;;;220579;1268;24315;-61
2022/09/08 08:48:40;;;;;;;4.90;3.70;;;23.70;57.00;;;;;;220691;1268;25483;-62
2022/09/08 08:54:06;;;;;;;4.00;3.40;;;23.80;56.60;;;;;;220508;1268;22524;-62
2022/09/08 08:59:38;;;;;;;4.80;3.80;;;23.80;57.00;;;;;;220672;1268;22844;-61
2022/09/08 09:04:53;;;;;;;4.90;3.50;;;23.80;56.90;;;;;;220730;1268;24265;-60
2022/09/08 09:10:00;;;;;;;4.40;3.40;;;23.80;56.90;;;;;;220774;1268;24306;-60
2022/09/08 09:15:26;;;;;;;5.90;4.10;;;23.90;56.90;;;;;;220883;1268;23860;-63
2022/09/08 09:20:57;;;;;;;4.80;3.90;;;23.90;56.90;;;;;;220752;1268;22584;-60
2022/09/08 09:26:21;;;;;;;6.50;3.70;;;24.00;56.80;;;;;;220626;1268;22546;-61
2022/09/08 09:31:53;;;;;;;4.80;3.60;;;24.00;56.80;;;;;;220344;1268;22560;-60
2022/09/08 09:37:05;;;;;;;4.80;3.80;;;24.10;56.80;;;;;;220571;1268;22668;-60
2022/09/08 09:42:31;;;;;;;4.80;3.80;;;24.10;56.80;;;;;;220765;1268;24196;-61
2022/09/08 09:48:00;;;;;;;6.70;4.00;;;24.10;56.70;;;;;;220813;1268;22567;-61
2022/09/08 09:53:39;;;;;;;5.20;3.90;;;24.20;56.70;;;;;;220985;1268;25425;-59
2022/09/08 09:59:15;;;;;;;4.80;3.70;;;24.30;56.70;;;;;;220353;1268;24225;-61
2022/09/08 10:04:22;;;;;;;4.30;3.40;;;24.30;56.60;;;;;;220873;1268;22529;-60
2022/09/08 10:09:57;;;;;;;5.30;3.60;;;24.40;56.60;;;;;;220725;1268;24203;-62
2022/09/08 10:15:25;;;;;;;;;;;24.40;56.50;;;;;;220405;1268;24240;-63
2022/09/08 10:20:47;;;;;;;4.50;3.50;;;24.50;57.00;;;;;;220923;1268;25106;-61
2022/09/08 10:26:16;;;;;;;5.20;3.90;;;24.50;56.40;;;;;;220957;1268;24305;-62
2022/09/08 10:31:26;;;;;;;4.70;3.80;;;24.60;56.40;;;;;;220506;1268;22682;-61
2022/09/08 10:36:54;;;;;;;5.30;4.10;;;24.60;56.30;;;;;;220754;1268;22578;-62
2022/09/08 10:42:25;;;;;;;5.80;4.20;;;24.60;56.30;;;;;;220531;1268;22522;-62
2022/09/08 10:48:17;;;;;;;4.40;3.40;;;24.60;56.20;;;;;;220833;1268;22669;-59
2022/09/08 10:53:35;;;;;;;5.30;3.90;;;24.60;56.20;;;;;;220287;1268;24290;-61
2022/09/08 10:58:51;;;;;;;5.20;4.30;;;24.60;56.30;;;;;;220646;1268;24658;-59
2022/09/08 11:04:00;;;;;;;5.30;4.00;;;24.60;56.30;;;;;;220766;1268;23037;-59
2022/09/08 11:09:24;;;;;;;5.60;3.60;;;24.70;56.30;;;;;;220986;1268;24199;-60
2022/09/08 11:14:40;;;;;;;5.50;4.00;;;24.70;56.70;;;;;;220914;1268;25231;-61
2022/09/08 11:19:48;;;;;;;4.10;3.50;;;24.70;56.30;;;;;;220622;1268;25324;-60
2022/09/08 11:25:18;;;;;;;4.30;3.70;;;24.70;56.10;;;;;;220935;1268;25241;-60
2022/09/08 11:30:31;;;;;;;4.30;3.50;;;24.70;56.40;;;;;;220684;1268;22544;-63
2022/09/08 11:35:47;;;;;;;4.50;4.00;;;24.60;56.50;;;;;;220513;1268;24272;-62
2022/09/08 11:40:53;;;;;;;4.60;3.50;;;24.70;56.60;;;;;;220466;1268;25522;-60
2022/09/08 11:46:13;;;;;;;5.70;4.10;;;24.60;57.00;;;;;;220359;1271;26490;-57
2022/09/08 11:51:33;;;;;;;5.10;4.40;;;24.60;56.90;;;;;;220250;1271;25313;-59
2022/09/08 11:57:14;;;;;;;4.10;3.70;;;24.70;56.60;;;;;;220603;1267;25316;-60
2022/09/08 12:02:38;;;;;;;4.80;4.30;;;24.60;56.60;;;;;;220753;1268;22553;-60
2022/09/08 12:08:15;;;;;;;4.80;4.20;;;24.70;56.70;;;;;;220631;1268;23851;-61
2022/09/08 12:13:46;;;;;;;5.10;3.80;;;24.70;56.90;;;;;;220957;1269;24281;-61
2022/09/08 12:18:59;;;;;;;;;;;24.70;56.50;;;;;;220688;1268;22544;-62
2022/09/08 12:24:22;;;;;;;4.90;4.10;;;24.70;56.60;;;;;;220992;1268;24290;-60
2022/09/08 12:29:54;;;;;;;5.10;4.00;;;24.70;56.60;;;;;;220677;1268;22541;-61
2022/09/08 12:35:04;;;;;;;4.60;3.80;;;24.70;56.60;;;;;;220869;1268;22772;-59
2022/09/08 12:40:20;;;;;;;5.40;4.40;;;24.80;56.60;;;;;;220802;1268;22626;-60
2022/09/08 12:46:01;;;;;;;4.70;4.00;;;24.80;56.40;;;;;;220434;1269;24315;-61
2022/09/08 12:51:27;;;;;;;4.50;3.90;;;24.90;57.00;;;;;;220829;1268;25238;-59
2022/09/08 12:57:11;;;;;;;4.60;3.70;;;24.90;56.40;;;;;;220870;1265;24308;-60
2022/09/08 13:02:43;;;;;;;4.80;4.20;;;24.90;56.40;;;;;;220654;1265;22543;-62
2022/09/08 13:08:31;;;;;;;5.00;4.20;;;24.90;56.40;;;;;;221144;1268;23491;-61
2022/09/08 13:13:59;;;;;;;4.70;4.00;;;24.90;56.50;;;;;;221027;1268;22590;-60
2022/09/08 13:20:11;;;;;;;4.30;3.90;;;24.90;56.90;;;;;;219943;1265;1570759;-59
2022/09/08 13:25:52;;;;;;;6.10;3.90;;;24.90;56.70;;;;;;220009;1274;22634;-60
2022/09/08 13:31:09;;;;;;;4.60;3.90;;;24.90;57.10;;;;;;220938;1265;22536;-60
2022/09/08 13:36:34;;;;;;;4.50;3.90;;;24.80;56.80;;;;;;220672;1265;22682;-62
2022/09/08 13:42:09;;;;;;;4.60;4.00;;;24.80;57.00;;;;;;220752;1265;24195;-61
2022/09/08 13:48:01;;;;;;;4.70;4.10;;;24.80;57.00;;;;;;220743;1265;23281;-60
2022/09/08 13:54:07;;;;;;;5.40;4.50;;;24.70;57.70;;;;;;220614;1265;26028;-59
2022/09/08 13:59:31;;;;;;;4.70;4.10;;;24.70;57.50;;;;;;220627;1269;22544;-62
2022/09/08 14:05:14;;;;;;;4.50;3.80;;;24.70;57.20;;;;;;221076;1265;25460;-60
2022/09/08 14:11:31;;;;;;;4.90;4.20;;;24.70;57.60;;;;;;219918;1272;24216;-63
2022/09/08 14:17:36;;;;;;;;;;;;;;;;;;;;;
2022/09/08 14:24:10;;;;;;;;;;;;;;;;;;;;;
2022/09/08 14:30:23;;;;;;;4.90;4.40;;;24.60;57.00;;;;;;219603;1274;25643;-59
2022/09/08 14:36:49;;;;;;;5.50;4.10;;;24.60;57.80;;;;;;219593;1276;22561;-59
2022/09/08 14:43:16;;;;;;;5.60;4.80;;;24.60;57.60;;;;;;219724;1271;24415;-59
2022/09/08 14:49:42;;;;;;;7.80;4.70;;;24.50;57.60;;;;;;219771;1270;24756;-60
2022/09/08 14:55:58;;;;;;;5.20;4.20;;;24.50;57.70;;;;;;221195;1265;22522;-60
2022/09/08 15:02:22;;;;;;;5.00;4.10;;;24.50;57.80;;;;;;221066;1265;24214;-61
2022/09/08 15:07:45;;;;;;;5.10;4.20;;;24.40;58.00;;;;;;221108;1269;25339;-59
2022/09/08 15:13:14;;;;;;;;;;;;;;;;;;;;;
2022/09/08 15:18:49;;;;;;;5.00;3.90;;;24.40;58.30;;;;;;220700;1270;24453;-60
2022/09/08 15:24:35;;;;;;;6.10;4.50;;;24.30;58.20;;;;;;220975;1268;24267;-60
2022/09/08 15:30:33;;;;;;;4.90;4.10;;;24.30;58.20;;;;;;220951;1265;22627;-59
2022/09/08 15:35:55;;;;;;;5.30;4.10;;;24.30;58.40;;;;;;221044;1270;24232;-60
2022/09/08 15:41:13;;;;;;;5.70;4.20;;;24.30;58.40;;;;;;221098;1265;22685;-62
2022/09/08 15:46:43;;;;;;;5.90;4.10;;;24.30;58.30;;;;;;220812;1265;24247;-58
2022/09/08 15:52:14;;;;;;;4.80;3.90;;;24.30;58.30;;;;;;221069;1265;25398;-60
2022/09/08 15:57:52;;;;;;;5.60;4.10;;;24.30;59.10;;;;;;220983;1265;22549;-60
2022/09/08 16:03:10;;;;;;;4.70;4.20;;;24.30;58.50;;;;;;220898;1269;24113;-58
2022/09/08 16:09:14;;;;;;;7.20;4.20;;;24.20;58.50;;;;;;220832;1265;22548;-57
2022/09/08 16:14:55;;;;;;;6.80;4.10;;;24.20;58.60;;;;;;220857;1265;22525;-59
2022/09/08 16:20:26;;;;;;;5.80;4.00;;;24.20;58.60;;;;;;220974;1270;22536;-59
2022/09/08 16:25:47;;;;;;;5.30;4.00;;;24.20;58.70;;;;;;221271;1265;22513;-59
2022/09/08 16:31:04;;;;;;;5.90;4.10;;;24.20;58.70;;;;;;220701;1265;22525;-60
2022/09/08 16:36:24;;;;;;;4.50;3.30;;;24.20;58.80;;;;;;221091;1265;22567;-59
2022/09/08 16:41:55;;;;;;;5.20;4.10;;;24.20;58.80;;;;;;221051;1265;22519;-58
2022/09/08 16:47:13;;;;;;;4.80;3.80;;;24.20;58.90;;;;;;221070;1265;24154;-60
2022/09/08 16:52:26;;;;;;;4.60;3.70;;;24.20;58.90;;;;;;221144;1268;25513;-58
2022/09/08 16:57:41;;;;;;;4.90;3.90;;;24.10;58.90;;;;;;220882;1265;24233;-58
2022/09/08 17:03:25;;;;;;;4.90;3.70;;;24.20;59.00;;;;;;220799;1265;25332;-57
2022/09/08 17:08:49;;;;;;;5.10;4.10;;;24.10;59.00;;;;;;220618;1269;24241;-60
2022/09/08 17:14:10;;;;;;;5.10;3.80;;;24.10;59.30;;;;;;220772;1265;23061;-60
2022/09/08 17:19:32;;;;;;;4.40;3.70;;;24.10;59.00;;;;;;220815;1265;22548;-61
2022/09/08 17:25:00;;;;;;;5.00;3.80;;;24.10;59.10;;;;;;221057;1265;24240;-59
2022/09/08 17:30:21;;;;;;;5.10;3.60;;;24.10;59.10;;;;;;221073;1265;22522;-59
2022/09/08 17:35:43;;;;;;;5.50;3.80;;;24.10;59.10;;;;;;220826;1269;24200;-58
2022/09/08 17:41:22;;;;;;;6.00;3.40;;;24.10;59.20;;;;;;220999;1265;22531;-60
2022/09/08 17:47:29;;;;;;;4.30;3.50;;;24.10;59.20;;;;;;220627;1265;24161;-59
2022/09/08 17:53:53;;;;;;;3.90;3.00;;;24.10;59.20;;;;;;220915;1265;25387;-59
2022/09/08 17:59:13;;;;;;;6.20;3.70;;;24.10;58.90;;;;;;220978;1265;24417;-58
2022/09/08 18:04:27;;;;;;;3.90;3.40;;;24.10;59.20;;;;;;220992;1265;22518;-59
2022/09/08 18:10:35;;;;;;;4.50;3.80;;;24.10;59.40;;;;;;220873;1265;22558;-60
2022/09/08 18:16:32;;;;;;;4.70;3.60;;;24.10;59.40;;;;;;220337;1270;25448;-60
2022/09/08 18:22:57;;;;;;;5.90;4.20;;;24.00;59.60;;;;;;220800;1270;22611;-59
2022/09/08 18:28:40;;;;;;;3.90;3.40;;;24.00;59.20;;;;;;220903;1268;24198;-59
2022/09/08 18:34:05;;;;;;;4.80;3.50;;;24.00;59.30;;;;;;220874;1268;25472;-59
2022/09/08 18:39:21;;;;;;;4.40;3.50;;;24.00;59.60;;;;;;220668;1268;22569;-59
2022/09/08 18:44:32;;;;;;;3.90;3.30;;;24.00;59.30;;;;;;221057;1268;25381;-58
2022/09/08 18:50:06;;;;;;;5.20;3.60;;;24.00;59.40;;;;;;220830;1268;25407;-59
2022/09/08 18:55:35;;;;;;;4.60;3.40;;;24.00;59.70;;;;;;220866;1265;22551;-59
2022/09/08 19:00:57;;;;;;;3.90;3.20;;;24.00;59.50;;;;;;220952;1268;22556;-59
2022/09/08 19:06:12;;;;;;;4.30;3.30;;;24.00;59.50;;;;;;220929;1267;25238;-59
2022/09/08 19:11:21;;;;;;;4.80;3.00;;;24.00;59.50;;;;;;220771;1268;25291;-61
2022/09/08 19:16:49;;;;;;;3.90;3.20;;;23.90;59.60;;;;;;221139;1268;24350;-60
2022/09/08 19:21:55;;;;;;;3.50;3.00;;;23.90;59.50;;;;;;220969;1268;22794;-59
2022/09/08 19:27:26;;;;;;;4.00;3.30;;;24.00;59.90;;;;;;220558;1268;22563;-58
2022/09/08 19:32:50;;;;;;;3.90;3.30;;;23.90;59.50;;;;;;220936;1265;22603;-58
2022/09/08 19:38:10;;;;;;;4.40;3.30;;;23.90;59.60;;;;;;220879;1268;23049;-59
2022/09/08 19:43:19;;;;;;;5.00;3.70;;;23.90;59.80;;;;;;220729;1268;24208;-58
2022/09/08 19:48:52;;;;;;;5.10;3.30;;;24.00;59.50;;;;;;220678;1268;22561;-58
2022/09/08 19:54:42;;;;;;;3.90;3.40;;;23.90;59.60;;;;;;220869;1267;24222;-59
2022/09/08 20:00:08;;;;;;;3.80;3.00;;;24.00;59.60;;;;;;220728;1268;22782;-59
2022/09/08 20:05:25;;;;;;;4.30;3.40;;;23.90;59.50;;;;;;221039;1268;22681;-59
2022/09/08 20:10:30;;;;;;;3.40;3.00;;;23.90;59.50;;;;;;220834;1265;24402;-61
2022/09/08 20:15:59;;;;;;;3.70;2.80;;;23.90;59.50;;;;;;220982;1268;24324;-60
2022/09/08 20:21:31;;;;;;;3.60;2.90;;;23.90;59.60;;;;;;221062;1268;25379;-60
2022/09/08 20:26:49;;;;;;;5.50;2.80;;;23.90;60.00;;;;;;220849;1268;22596;-59
2022/09/08 20:32:17;;;;;;;3.50;2.90;;;23.90;59.50;;;;;;220643;1268;24227;-60
2022/09/08 20:37:46;;;;;;;3.70;3.30;;;23.90;59.50;;;;;;220681;1267;24267;-59
2022/09/08 20:43:25;;;;;;;3.80;2.90;;;23.90;59.50;;;;;;220919;1268;24272;-60
2022/09/08 20:48:56;;;;;;;3.50;2.90;;;23.90;59.50;;;;;;221021;1268;22545;-59
2022/09/08 20:54:25;;;;;;;4.50;3.20;;;23.90;59.50;;;;;;220946;1268;24202;-58
2022/09/08 21:00:00;;;;;;;3.50;2.90;;;23.90;59.50;;;;;;221003;1268;22756;-59
2022/09/08 21:05:47;;;;;;;4.60;3.10;;;23.90;59.50;;;;;;220671;1268;25528;-59
2022/09/08 21:11:13;;;;;;;3.60;3.00;;;23.90;59.60;;;;;;220573;1265;22622;-58
2022/09/08 21:16:29;;;;;;;4.20;2.70;;;23.90;59.60;;;;;;220658;1268;25529;-59
2022/09/08 21:22:12;;;;;;;3.30;2.80;;;23.90;59.90;;;;;;220995;1268;25801;-59
2022/09/08 21:27:46;;;;;;;5.70;3.10;;;23.90;60.00;;;;;;220825;1268;24257;-62
2022/09/08 21:33:27;;;;;;;3.80;3.10;;;23.90;59.60;;;;;;221093;1265;22534;-60
2022/09/08 21:38:50;;;;;;;3.60;2.80;;;23.90;59.70;;;;;;221095;1268;24543;-58
2022/09/08 21:44:24;;;;;;;4.80;2.60;;;23.80;59.60;;;;;;220668;1265;25230;-60
2022/09/08 21:49:37;;;;;;;4.10;2.70;;;23.80;59.60;;;;;;220793;1268;24361;-58
2022/09/08 21:54:59;;;;;;;3.80;3.00;;;23.80;60.20;;;;;;220693;1267;25507;-59
2022/09/08 22:00:11;;;;;;;3.70;2.70;;;23.80;60.00;;;;;;221113;1265;22525;-60
2022/09/08 22:05:38;;;;;;;3.40;2.80;;;23.80;59.70;;;;;;220796;1268;23095;-60
2022/09/08 22:11:05;;;;;;;3.30;2.70;;;23.80;59.80;;;;;;220746;1265;24245;-59
2022/09/08 22:16:24;;;;;;;3.60;3.10;;;23.80;59.80;;;;;;220983;1265;25402;-58
2022/09/08 22:22:12;;;;;;;3.80;2.80;;;23.80;60.00;;;;;;220984;1268;24401;-60
2022/09/08 22:27:32;;;;;;;3.40;2.80;;;23.80;59.80;;;;;;221063;1268;23906;-60
2022/09/08 22:33:02;;;;;;;3.90;3.00;;;23.80;60.00;;;;;;220722;1265;22663;-59
2022/09/08 22:38:13;;;;;;;3.50;2.80;;;23.70;59.70;;;;;;221005;1265;22688;-60
2022/09/08 22:43:29;;;;;;;3.60;3.10;;;23.80;59.80;;;;;;220915;1268;25305;-59
2022/09/08 22:49:02;;;;;;;4.10;3.00;;;23.80;59.90;;;;;;220700;1268;24014;-59
2022/09/08 22:54:39;;;;;;;3.50;2.60;;;23.80;60.20;;;;;;220896;1265;22571;-59
2022/09/08 22:59:53;;;;;;;4.20;2.90;;;23.70;59.80;;;;;;220745;1268;24425;-57
2022/09/08 23:05:15;;;;;;;3.10;2.70;;;23.70;59.90;;;;;;220891;1268;25362;-57
2022/09/08 23:10:24;;;;;;;5.10;2.90;;;23.70;60.20;;;;;;220980;1268;22550;-59
2022/09/08 23:15:45;;;;;;;3.40;2.80;;;23.70;59.90;;;;;;221113;1265;25761;-61
2022/09/08 23:21:15;;;;;;;2.90;2.60;;;23.70;60.20;;;;;;220770;1268;25257;-59
2022/09/08 23:26:34;;;;;;;3.60;2.70;;;23.70;59.90;;;;;;221085;1265;24162;-57
2022/09/08 23:31:55;;;;;;;3.30;2.80;;;23.70;59.90;;;;;;221071;1268;22711;-59
2022/09/08 23:36:58;;;;;;;3.20;2.50;;;23.70;60.00;;;;;;220930;1268;26538;-56
2022/09/08 23:42:08;;;;;;;4.50;2.50;;;23.70;60.30;;;;;;220589;1268;23574;-60
2022/09/08 23:47:26;;;;;;;3.20;2.50;;;23.70;60.00;;;;;;220962;1268;22583;-61
2022/09/08 23:52:33;;;;;;;4.00;2.50;;;23.60;60.00;;;;;;221000;1265;22547;-59
2022/09/08 23:57:37;;;;;;;3.50;2.80;;;23.60;60.00;;;;;;220839;1268;22564;-58
